sensor_id;sensor_type;location;lat;lon;timestamp;temperature;humidity
16666;DHT22;8446;50.99880500;6.25021400;2024-02-21T00:01:14;8.80;99.90
16666;DHT22;8446;50.99880500;6.25021400;2024-02-21T00:03:48;8.80;99.90
16666;DHT22;8446;50.99880500;6.25021400;2024-02-21T00:06:20;8.70;99.90
16666;DHT22;8446;50.99880500;6.25021400;2024-02-21T00:08:51;8.70;99.90
16666;DHT22;8446;50.99880500;6.25021400;2024-02-21T00:11:23;8.70;99.90
16666;DHT22;8446;50.99880500;6.25021400;2024-02-21T00:13:55;8.70;99.90
16666;DHT22;8446;50.99880500;6.25021400;2024-02-21T00:16:27;8.70;99.90
16666;DHT22;8446;50.99880500;6.25021400;2024-02-21T00:19:00;8.70;99.90
16666;DHT22;8446;50.99880500;6.25021400;2024-02-21T00:21:32;8.70;99.90
16666;DHT22;8446;50.99880500;6.25021400;2024-02-21T00:24:04;8.70;99.90
16666;DHT22;8446;50.99880500;6.25021400;2024-02-21T00:26:36;8.70;99.90
16666;DHT22;8446;50.99880500;6.25021400;2024-02-21T00:29:08;8.60;99.90
16666;DHT22;8446;50.99880500;6.25021400;2024-02-21T00:31:40;8.60;99.90
16666;DHT22;8446;50.99880500;6.25021400;2024-02-21T00:34:13;8.60;99.90
16666;DHT22;8446;50.99880500;6.25021400;2024-02-21T00:36:45;8.60;99.90
16666;DHT22;8446;50.99880500;6.25021400;2024-02-21T00:39:17;8.60;99.90
16666;DHT22;8446;50.99880500;6.25021400;2024-02-21T00:41:48;8.60;99.90
16666;DHT22;8446;50.99880500;6.25021400;2024-02-21T00:44:20;8.70;99.90
16666;DHT22;8446;50.99880500;6.25021400;2024-02-21T00:46:52;8.70;99.90
16666;DHT22;8446;50.99880500;6.25021400;2024-02-21T00:49:26;8.70;99.90
16666;DHT22;8446;50.99880500;6.25021400;2024-02-21T00:51:57;8.70;99.90
16666;DHT22;8446;50.99880500;6.25021400;2024-02-21T00:54:29;8.60;99.90
16666;DHT22;8446;50.99880500;6.25021400;2024-02-21T00:57:01;8.60;99.90
16666;DHT22;8446;50.99880500;6.25021400;2024-02-21T00:59:33;8.50;99.90
16666;DHT22;8446;50.99880500;6.25021400;2024-02-21T01:02:04;8.60;99.90
16666;DHT22;8446;50.99880500;6.25021400;2024-02-21T01:04:37;8.60;99.90
16666;DHT22;8446;50.99880500;6.25021400;2024-02-21T01:07:09;8.60;99.90
16666;DHT22;8446;50.99880500;6.25021400;2024-02-21T01:09:41;8.50;99.90
16666;DHT22;8446;50.99880500;6.25021400;2024-02-21T01:12:13;8.50;99.90
16666;DHT22;8446;50.99880500;6.25021400;2024-02-21T01:14:45;8.50;99.90
16666;DHT22;8446;50.99880500;6.25021400;2024-02-21T01:17:17;8.50;99.90
16666;DHT22;8446;50.99880500;6.25021400;2024-02-21T01:19:50;8.50;99.90
16666;DHT22;8446;50.99880500;6.25021400;2024-02-21T01:22:22;8.50;99.90
16666;DHT22;8446;50.99880500;6.25021400;2024-02-21T01:24:54;8.50;99.90
16666;DHT22;8446;50.99880500;6.25021400;2024-02-21T01:27:26;8.40;99.90
16666;DHT22;8446;50.99880500;6.25021400;2024-02-21T01:29:58;8.50;99.90
16666;DHT22;8446;50.99880500;6.25021400;2024-02-21T01:32:29;8.40;99.90
16666;DHT22;8446;50.99880500;6.25021400;2024-02-21T01:35:03;8.40;99.90
16666;DHT22;8446;50.99880500;6.25021400;2024-02-21T01:37:35;8.40;99.90
16666;DHT22;8446;50.99880500;6.25021400;2024-02-21T01:40:08;8.40;99.90
16666;DHT22;8446;50.99880500;6.25021400;2024-02-21T01:42:40;8.40;99.90
16666;DHT22;8446;50.99880500;6.25021400;2024-02-21T01:45:12;8.40;99.90
16666;DHT22;8446;50.99880500;6.25021400;2024-02-21T01:47:44;8.40;99.90
16666;DHT22;8446;50.99880500;6.25021400;2024-02-21T01:50:17;8.40;99.90
16666;DHT22;8446;50.99880500;6.25021400;2024-02-21T01:52:50;8.40;99.90
16666;DHT22;8446;50.99880500;6.25021400;2024-02-21T01:55:22;8.40;99.90
16666;DHT22;8446;50.99880500;6.25021400;2024-02-21T01:57:53;8.40;99.90
16666;DHT22;8446;50.99880500;6.25021400;2024-02-21T02:00:26;8.40;99.90
16666;DHT22;8446;50.99880500;6.25021400;2024-02-21T02:02:58;8.40;99.90
16666;DHT22;8446;50.99880500;6.25021400;2024-02-21T02:05:32;8.40;99.90
16666;DHT22;8446;50.99880500;6.25021400;2024-02-21T02:08:04;8.40;99.90
16666;DHT22;8446;50.99880500;6.25021400;2024-02-21T02:10:36;8.40;99.90
16666;DHT22;8446;50.99880500;6.25021400;2024-02-21T02:13:09;8.50;99.90
16666;DHT22;8446;50.99880500;6.25021400;2024-02-21T02:15:41;8.50;99.90
16666;DHT22;8446;50.99880500;6.25021400;2024-02-21T02:18:14;8.50;99.90
16666;DHT22;8446;50.99880500;6.25021400;2024-02-21T02:20:47;8.40;99.90
16666;DHT22;8446;50.99880500;6.25021400;2024-02-21T02:23:23;8.50;99.90
16666;DHT22;8446;50.99880500;6.25021400;2024-02-21T02:25:55;8.40;99.90
16666;DHT22;8446;50.99880500;6.25021400;2024-02-21T02:28:27;8.40;99.90
16666;DHT22;8446;50.99880500;6.25021400;2024-02-21T02:30:58;8.50;99.90
16666;DHT22;8446;50.99880500;6.25021400;2024-02-21T02:33:30;8.40;99.90
16666;DHT22;8446;50.99880500;6.25021400;2024-02-21T02:36:02;8.40;99.90
16666;DHT22;8446;50.99880500;6.25021400;2024-02-21T02:38:35;8.40;99.90
16666;DHT22;8446;50.99880500;6.25021400;2024-02-21T02:41:07;8.40;99.90
16666;DHT22;8446;50.99880500;6.25021400;2024-02-21T02:43:39;8.40;99.90
16666;DHT22;8446;50.99880500;6.25021400;2024-02-21T02:46:11;8.40;99.90
16666;DHT22;8446;50.99880500;6.25021400;2024-02-21T02:48:42;8.40;99.90
16666;DHT22;8446;50.99880500;6.25021400;2024-02-21T02:51:15;8.40;99.90
16666;DHT22;8446;50.99880500;6.25021400;2024-02-21T02:53:48;8.40;99.90
16666;DHT22;8446;50.99880500;6.25021400;2024-02-21T02:56:20;8.40;99.90
16666;DHT22;8446;50.99880500;6.25021400;2024-02-21T02:58:52;8.40;99.90
16666;DHT22;8446;50.99880500;6.25021400;2024-02-21T03:01:23;8.40;99.90
16666;DHT22;8446;50.99880500;6.25021400;2024-02-21T03:03:55;8.40;99.90
16666;DHT22;8446;50.99880500;6.25021400;2024-02-21T03:06:27;8.30;99.90
16666;DHT22;8446;50.99880500;6.25021400;2024-02-21T03:09:00;8.30;99.90
16666;DHT22;8446;50.99880500;6.25021400;2024-02-21T03:11:31;8.30;99.90
16666;DHT22;8446;50.99880500;6.25021400;2024-02-21T03:14:03;8.30;99.90
16666;DHT22;8446;50.99880500;6.25021400;2024-02-21T03:16:35;8.30;99.90
16666;DHT22;8446;50.99880500;6.25021400;2024-02-21T03:19:07;8.30;99.90
16666;DHT22;8446;50.99880500;6.25021400;2024-02-21T03:21:38;8.40;99.90
16666;DHT22;8446;50.99880500;6.25021400;2024-02-21T03:24:12;8.40;99.90
16666;DHT22;8446;50.99880500;6.25021400;2024-02-21T03:26:43;8.40;99.90
16666;DHT22;8446;50.99880500;6.25021400;2024-02-21T03:29:16;8.30;99.90
16666;DHT22;8446;50.99880500;6.25021400;2024-02-21T03:31:48;8.30;99.90
16666;DHT22;8446;50.99880500;6.25021400;2024-02-21T03:34:20;8.30;99.90
16666;DHT22;8446;50.99880500;6.25021400;2024-02-21T03:36:52;8.40;99.90
16666;DHT22;8446;50.99880500;6.25021400;2024-02-21T03:39:25;8.30;99.90
16666;DHT22;8446;50.99880500;6.25021400;2024-02-21T03:41:57;8.30;99.90
16666;DHT22;8446;50.99880500;6.25021400;2024-02-21T03:44:31;8.30;99.90
16666;DHT22;8446;50.99880500;6.25021400;2024-02-21T03:47:03;8.30;99.90
16666;DHT22;8446;50.99880500;6.25021400;2024-02-21T03:49:35;8.40;99.90
16666;DHT22;8446;50.99880500;6.25021400;2024-02-21T03:52:06;8.30;99.90
16666;DHT22;8446;50.99880500;6.25021400;2024-02-21T03:54:40;8.30;99.90
16666;DHT22;8446;50.99880500;6.25021400;2024-02-21T03:57:11;8.30;99.90
16666;DHT22;8446;50.99880500;6.25021400;2024-02-21T03:59:43;8.30;99.90
16666;DHT22;8446;50.99880500;6.25021400;2024-02-21T04:02:15;8.30;99.90
16666;DHT22;8446;50.99880500;6.25021400;2024-02-21T04:04:47;8.30;99.90
16666;DHT22;8446;50.99880500;6.25021400;2024-02-21T04:07:19;8.30;99.90
16666;DHT22;8446;50.99880500;6.25021400;2024-02-21T04:09:53;8.30;99.90
16666;DHT22;8446;50.99880500;6.25021400;2024-02-21T04:12:24;8.30;99.90
16666;DHT22;8446;50.99880500;6.25021400;2024-02-21T04:14:56;8.20;99.90
16666;DHT22;8446;50.99880500;6.25021400;2024-02-21T04:17:28;8.30;99.90
16666;DHT22;8446;50.99880500;6.25021400;2024-02-21T04:20:02;8.30;99.90
16666;DHT22;8446;50.99880500;6.25021400;2024-02-21T04:22:35;8.20;99.90
16666;DHT22;8446;50.99880500;6.25021400;2024-02-21T04:25:09;8.20;99.90
16666;DHT22;8446;50.99880500;6.25021400;2024-02-21T04:27:41;8.20;99.90
16666;DHT22;8446;50.99880500;6.25021400;2024-02-21T04:30:13;8.20;99.90
16666;DHT22;8446;50.99880500;6.25021400;2024-02-21T04:32:46;8.20;99.90
16666;DHT22;8446;50.99880500;6.25021400;2024-02-21T04:35:18;8.20;99.90
16666;DHT22;8446;50.99880500;6.25021400;2024-02-21T04:37:50;8.20;99.90
16666;DHT22;8446;50.99880500;6.25021400;2024-02-21T04:40:23;8.30;99.90
16666;DHT22;8446;50.99880500;6.25021400;2024-02-21T04:42:54;8.30;99.90
16666;DHT22;8446;50.99880500;6.25021400;2024-02-21T04:45:26;8.20;99.90
16666;DHT22;8446;50.99880500;6.25021400;2024-02-21T04:47:58;8.20;99.90
16666;DHT22;8446;50.99880500;6.25021400;2024-02-21T04:50:30;8.20;99.90
16666;DHT22;8446;50.99880500;6.25021400;2024-02-21T04:53:02;8.20;99.90
16666;DHT22;8446;50.99880500;6.25021400;2024-02-21T04:55:36;8.20;99.90
16666;DHT22;8446;50.99880500;6.25021400;2024-02-21T04:58:07;8.20;99.90
16666;DHT22;8446;50.99880500;6.25021400;2024-02-21T05:00:39;8.30;99.90
16666;DHT22;8446;50.99880500;6.25021400;2024-02-21T05:03:12;8.30;99.90
16666;DHT22;8446;50.99880500;6.25021400;2024-02-21T05:05:44;8.20;99.90
16666;DHT22;8446;50.99880500;6.25021400;2024-02-21T05:08:15;8.30;99.90
16666;DHT22;8446;50.99880500;6.25021400;2024-02-21T05:10:49;8.30;99.90
16666;DHT22;8446;50.99880500;6.25021400;2024-02-21T05:13:20;8.30;99.90
16666;DHT22;8446;50.99880500;6.25021400;2024-02-21T05:15:53;8.30;99.90
16666;DHT22;8446;50.99880500;6.25021400;2024-02-21T05:18:25;8.40;99.90
16666;DHT22;8446;50.99880500;6.25021400;2024-02-21T05:20:56;8.50;99.90
16666;DHT22;8446;50.99880500;6.25021400;2024-02-21T05:23:28;8.40;99.90
16666;DHT22;8446;50.99880500;6.25021400;2024-02-21T05:26:01;8.40;99.90
16666;DHT22;8446;50.99880500;6.25021400;2024-02-21T05:28:33;8.40;99.90
16666;DHT22;8446;50.99880500;6.25021400;2024-02-21T05:31:05;8.40;99.90
16666;DHT22;8446;50.99880500;6.25021400;2024-02-21T05:33:37;8.40;99.90
16666;DHT22;8446;50.99880500;6.25021400;2024-02-21T05:36:09;8.40;99.90
16666;DHT22;8446;50.99880500;6.25021400;2024-02-21T05:38:40;8.40;99.90
16666;DHT22;8446;50.99880500;6.25021400;2024-02-21T05:41:13;8.40;99.90
16666;DHT22;8446;50.99880500;6.25021400;2024-02-21T05:43:45;8.30;99.90
16666;DHT22;8446;50.99880500;6.25021400;2024-02-21T05:46:19;8.30;99.90
16666;DHT22;8446;50.99880500;6.25021400;2024-02-21T05:48:51;8.30;99.90
16666;DHT22;8446;50.99880500;6.25021400;2024-02-21T05:51:22;8.30;99.90
16666;DHT22;8446;50.99880500;6.25021400;2024-02-21T05:53:54;8.30;99.90
16666;DHT22;8446;50.99880500;6.25021400;2024-02-21T05:56:28;8.20;99.90
16666;DHT22;8446;50.99880500;6.25021400;2024-02-21T05:59:00;8.30;99.90
16666;DHT22;8446;50.99880500;6.25021400;2024-02-21T06:01:31;8.30;99.90
16666;DHT22;8446;50.99880500;6.25021400;2024-02-21T06:04:04;8.40;99.90
16666;DHT22;8446;50.99880500;6.25021400;2024-02-21T06:06:36;8.30;99.90
16666;DHT22;8446;50.99880500;6.25021400;2024-02-21T06:09:07;8.40;99.90
16666;DHT22;8446;50.99880500;6.25021400;2024-02-21T06:11:41;8.40;99.90
16666;DHT22;8446;50.99880500;6.25021400;2024-02-21T06:14:13;8.50;99.90
16666;DHT22;8446;50.99880500;6.25021400;2024-02-21T06:16:45;8.50;99.90
16666;DHT22;8446;50.99880500;6.25021400;2024-02-21T06:19:17;8.40;99.90
16666;DHT22;8446;50.99880500;6.25021400;2024-02-21T06:21:48;8.40;99.90
16666;DHT22;8446;50.99880500;6.25021400;2024-02-21T06:24:20;8.40;99.90
16666;DHT22;8446;50.99880500;6.25021400;2024-02-21T06:26:53;8.40;99.90
16666;DHT22;8446;50.99880500;6.25021400;2024-02-21T06:29:25;8.40;99.90
16666;DHT22;8446;50.99880500;6.25021400;2024-02-21T06:31:57;8.30;99.90
16666;DHT22;8446;50.99880500;6.25021400;2024-02-21T06:34:29;8.30;99.90
16666;DHT22;8446;50.99880500;6.25021400;2024-02-21T06:37:00;8.30;99.90
16666;DHT22;8446;50.99880500;6.25021400;2024-02-21T06:39:32;8.30;99.90
16666;DHT22;8446;50.99880500;6.25021400;2024-02-21T06:42:06;8.20;99.90
16666;DHT22;8446;50.99880500;6.25021400;2024-02-21T06:44:37;8.20;99.90
16666;DHT22;8446;50.99880500;6.25021400;2024-02-21T06:47:10;8.30;99.90
16666;DHT22;8446;50.99880500;6.25021400;2024-02-21T06:49:42;8.20;99.90
16666;DHT22;8446;50.99880500;6.25021400;2024-02-21T06:52:14;8.20;99.90
16666;DHT22;8446;50.99880500;6.25021400;2024-02-21T06:54:47;8.20;99.90
16666;DHT22;8446;50.99880500;6.25021400;2024-02-21T06:57:21;8.20;99.90
16666;DHT22;8446;50.99880500;6.25021400;2024-02-21T06:59:52;8.20;99.90
16666;DHT22;8446;50.99880500;6.25021400;2024-02-21T07:02:24;8.20;99.90
16666;DHT22;8446;50.99880500;6.25021400;2024-02-21T07:04:56;8.20;99.90
16666;DHT22;8446;50.99880500;6.25021400;2024-02-21T07:07:28;8.20;99.90
16666;DHT22;8446;50.99880500;6.25021400;2024-02-21T07:10:00;8.20;99.90
16666;DHT22;8446;50.99880500;6.25021400;2024-02-21T07:12:33;8.20;99.90
16666;DHT22;8446;50.99880500;6.25021400;2024-02-21T07:15:06;8.30;99.90
16666;DHT22;8446;50.99880500;6.25021400;2024-02-21T07:17:38;8.30;99.90
16666;DHT22;8446;50.99880500;6.25021400;2024-02-21T07:20:10;8.20;99.90
16666;DHT22;8446;50.99880500;6.25021400;2024-02-21T07:22:42;8.20;99.90
16666;DHT22;8446;50.99880500;6.25021400;2024-02-21T07:25:14;8.20;99.90
16666;DHT22;8446;50.99880500;6.25021400;2024-02-21T07:27:47;8.20;99.90
16666;DHT22;8446;50.99880500;6.25021400;2024-02-21T07:30:19;8.20;99.90
16666;DHT22;8446;50.99880500;6.25021400;2024-02-21T07:32:50;8.20;99.90
16666;DHT22;8446;50.99880500;6.25021400;2024-02-21T07:35:22;8.20;99.90
16666;DHT22;8446;50.99880500;6.25021400;2024-02-21T07:37:54;8.20;99.90
16666;DHT22;8446;50.99880500;6.25021400;2024-02-21T07:40:26;8.20;99.90
16666;DHT22;8446;50.99880500;6.25021400;2024-02-21T07:42:59;8.10;99.90
16666;DHT22;8446;50.99880500;6.25021400;2024-02-21T07:45:30;8.10;99.90
16666;DHT22;8446;50.99880500;6.25021400;2024-02-21T07:48:03;8.10;99.90
16666;DHT22;8446;50.99880500;6.25021400;2024-02-21T07:50:35;8.10;99.90
16666;DHT22;8446;50.99880500;6.25021400;2024-02-21T07:53:06;8.20;99.90
16666;DHT22;8446;50.99880500;6.25021400;2024-02-21T07:55:38;8.10;99.90
16666;DHT22;8446;50.99880500;6.25021400;2024-02-21T07:58:11;8.10;99.90
16666;DHT22;8446;50.99880500;6.25021400;2024-02-21T08:00:43;8.20;99.90
16666;DHT22;8446;50.99880500;6.25021400;2024-02-21T08:03:15;8.10;99.90
16666;DHT22;8446;50.99880500;6.25021400;2024-02-21T08:05:48;8.20;99.90
16666;DHT22;8446;50.99880500;6.25021400;2024-02-21T08:08:20;8.30;99.90
16666;DHT22;8446;50.99880500;6.25021400;2024-02-21T08:10:52;8.20;99.90
16666;DHT22;8446;50.99880500;6.25021400;2024-02-21T08:13:25;8.20;99.90
16666;DHT22;8446;50.99880500;6.25021400;2024-02-21T08:15:59;8.20;99.90
16666;DHT22;8446;50.99880500;6.25021400;2024-02-21T08:18:30;8.20;99.90
16666;DHT22;8446;50.99880500;6.25021400;2024-02-21T08:21:03;8.20;99.90
16666;DHT22;8446;50.99880500;6.25021400;2024-02-21T08:23:35;8.20;99.90
16666;DHT22;8446;50.99880500;6.25021400;2024-02-21T08:26:07;8.20;99.90
16666;DHT22;8446;50.99880500;6.25021400;2024-02-21T08:28:40;8.20;99.90
16666;DHT22;8446;50.99880500;6.25021400;2024-02-21T08:31:18;8.20;99.90
16666;DHT22;8446;50.99880500;6.25021400;2024-02-21T08:33:50;8.30;99.90
16666;DHT22;8446;50.99880500;6.25021400;2024-02-21T08:36:22;8.20;99.90
16666;DHT22;8446;50.99880500;6.25021400;2024-02-21T08:38:54;8.30;99.90
16666;DHT22;8446;50.99880500;6.25021400;2024-02-21T08:41:26;8.30;99.90
16666;DHT22;8446;50.99880500;6.25021400;2024-02-21T08:44:01;8.30;99.90
16666;DHT22;8446;50.99880500;6.25021400;2024-02-21T08:46:33;8.40;99.90
16666;DHT22;8446;50.99880500;6.25021400;2024-02-21T08:49:05;8.40;99.90
16666;DHT22;8446;50.99880500;6.25021400;2024-02-21T08:51:37;8.40;99.90
16666;DHT22;8446;50.99880500;6.25021400;2024-02-21T08:54:09;8.50;99.90
16666;DHT22;8446;50.99880500;6.25021400;2024-02-21T08:56:40;8.40;99.90
16666;DHT22;8446;50.99880500;6.25021400;2024-02-21T08:59:14;8.50;99.90
16666;DHT22;8446;50.99880500;6.25021400;2024-02-21T09:01:47;8.50;99.90
16666;DHT22;8446;50.99880500;6.25021400;2024-02-21T09:04:19;8.50;99.90
16666;DHT22;8446;50.99880500;6.25021400;2024-02-21T09:06:51;8.50;99.90
16666;DHT22;8446;50.99880500;6.25021400;2024-02-21T09:09:23;8.60;99.90
16666;DHT22;8446;50.99880500;6.25021400;2024-02-21T09:11:55;8.60;99.90
16666;DHT22;8446;50.99880500;6.25021400;2024-02-21T09:14:29;8.60;99.90
16666;DHT22;8446;50.99880500;6.25021400;2024-02-21T09:17:01;8.70;99.90
16666;DHT22;8446;50.99880500;6.25021400;2024-02-21T09:19:33;8.70;99.90
16666;DHT22;8446;50.99880500;6.25021400;2024-02-21T09:22:05;8.80;99.90
16666;DHT22;8446;50.99880500;6.25021400;2024-02-21T09:24:37;8.90;99.90
16666;DHT22;8446;50.99880500;6.25021400;2024-02-21T09:27:08;8.90;99.90
16666;DHT22;8446;50.99880500;6.25021400;2024-02-21T09:29:42;9.00;99.90
16666;DHT22;8446;50.99880500;6.25021400;2024-02-21T09:32:13;9.00;99.90
16666;DHT22;8446;50.99880500;6.25021400;2024-02-21T09:34:45;9.10;99.90
16666;DHT22;8446;50.99880500;6.25021400;2024-02-21T09:37:17;9.00;99.90
16666;DHT22;8446;50.99880500;6.25021400;2024-02-21T09:39:48;9.00;99.90
16666;DHT22;8446;50.99880500;6.25021400;2024-02-21T09:42:21;9.00;99.90
16666;DHT22;8446;50.99880500;6.25021400;2024-02-21T09:44:58;9.10;99.90
16666;DHT22;8446;50.99880500;6.25021400;2024-02-21T09:47:37;9.10;99.90
16666;DHT22;8446;50.99880500;6.25021400;2024-02-21T09:50:10;9.10;99.90
16666;DHT22;8446;50.99880500;6.25021400;2024-02-21T09:52:44;9.20;99.90
16666;DHT22;8446;50.99880500;6.25021400;2024-02-21T09:55:17;9.20;99.90
16666;DHT22;8446;50.99880500;6.25021400;2024-02-21T09:57:50;9.20;99.90
16666;DHT22;8446;50.99880500;6.25021400;2024-02-21T10:00:24;9.20;99.90
16666;DHT22;8446;50.99880500;6.25021400;2024-02-21T10:02:55;9.20;99.90
16666;DHT22;8446;50.99880500;6.25021400;2024-02-21T10:05:27;9.30;99.90
16666;DHT22;8446;50.99880500;6.25021400;2024-02-21T10:07:59;9.30;99.90
16666;DHT22;8446;50.99880500;6.25021400;2024-02-21T10:10:40;9.30;99.90
16666;DHT22;8446;50.99880500;6.25021400;2024-02-21T10:13:24;9.30;99.90
16666;DHT22;8446;50.99880500;6.25021400;2024-02-21T10:16:06;9.30;99.90
16666;DHT22;8446;50.99880500;6.25021400;2024-02-21T10:18:38;9.30;99.90
16666;DHT22;8446;50.99880500;6.25021400;2024-02-21T10:21:10;9.40;99.90
16666;DHT22;8446;50.99880500;6.25021400;2024-02-21T10:23:43;9.30;99.90
16666;DHT22;8446;50.99880500;6.25021400;2024-02-21T10:26:17;9.30;99.90
16666;DHT22;8446;50.99880500;6.25021400;2024-02-21T10:28:49;9.40;99.90
16666;DHT22;8446;50.99880500;6.25021400;2024-02-21T10:31:24;9.40;99.90
16666;DHT22;8446;50.99880500;6.25021400;2024-02-21T10:33:57;9.40;99.90
16666;DHT22;8446;50.99880500;6.25021400;2024-02-21T10:36:29;9.40;99.90
16666;DHT22;8446;50.99880500;6.25021400;2024-02-21T10:39:01;9.60;99.90
16666;DHT22;8446;50.99880500;6.25021400;2024-02-21T10:41:32;9.60;99.90
16666;DHT22;8446;50.99880500;6.25021400;2024-02-21T10:44:05;9.60;99.90
16666;DHT22;8446;50.99880500;6.25021400;2024-02-21T10:46:43;9.70;99.90
16666;DHT22;8446;50.99880500;6.25021400;2024-02-21T10:49:22;9.70;99.90
16666;DHT22;8446;50.99880500;6.25021400;2024-02-21T10:52:02;9.80;99.90
16666;DHT22;8446;50.99880500;6.25021400;2024-02-21T10:54:44;9.80;99.90
16666;DHT22;8446;50.99880500;6.25021400;2024-02-21T10:57:17;10.00;99.90
16666;DHT22;8446;50.99880500;6.25021400;2024-02-21T10:59:50;10.00;99.90
16666;DHT22;8446;50.99880500;6.25021400;2024-02-21T11:02:24;10.00;99.90
16666;DHT22;8446;50.99880500;6.25021400;2024-02-21T11:04:57;10.00;99.90
16666;DHT22;8446;50.99880500;6.25021400;2024-02-21T11:07:29;10.00;99.90
16666;DHT22;8446;50.99880500;6.25021400;2024-02-21T11:10:03;10.10;99.90
16666;DHT22;8446;50.99880500;6.25021400;2024-02-21T11:12:38;10.10;99.90
16666;DHT22;8446;50.99880500;6.25021400;2024-02-21T11:15:11;10.10;99.90
16666;DHT22;8446;50.99880500;6.25021400;2024-02-21T11:17:53;10.10;99.90
16666;DHT22;8446;50.99880500;6.25021400;2024-02-21T11:20:32;10.20;99.90
16666;DHT22;8446;50.99880500;6.25021400;2024-02-21T11:23:04;10.10;99.90
16666;DHT22;8446;50.99880500;6.25021400;2024-02-21T11:25:36;10.20;99.90
16666;DHT22;8446;50.99880500;6.25021400;2024-02-21T11:28:08;10.20;99.90
16666;DHT22;8446;50.99880500;6.25021400;2024-02-21T11:30:39;10.30;99.90
16666;DHT22;8446;50.99880500;6.25021400;2024-02-21T11:33:16;10.30;99.90
16666;DHT22;8446;50.99880500;6.25021400;2024-02-21T11:35:48;10.30;99.90
16666;DHT22;8446;50.99880500;6.25021400;2024-02-21T11:38:23;10.30;99.90
16666;DHT22;8446;50.99880500;6.25021400;2024-02-21T11:40:55;10.30;99.90
16666;DHT22;8446;50.99880500;6.25021400;2024-02-21T11:43:28;10.30;99.90
16666;DHT22;8446;50.99880500;6.25021400;2024-02-21T11:46:01;10.30;99.90
16666;DHT22;8446;50.99880500;6.25021400;2024-02-21T11:48:35;10.30;99.90
16666;DHT22;8446;50.99880500;6.25021400;2024-02-21T11:51:07;10.40;99.90
16666;DHT22;8446;50.99880500;6.25021400;2024-02-21T11:53:39;10.40;99.90
16666;DHT22;8446;50.99880500;6.25021400;2024-02-21T11:56:11;10.50;99.90
16666;DHT22;8446;50.99880500;6.25021400;2024-02-21T11:58:43;10.50;99.90
16666;DHT22;8446;50.99880500;6.25021400;2024-02-21T12:01:15;10.60;99.90
16666;DHT22;8446;50.99880500;6.25021400;2024-02-21T12:03:48;10.60;99.90
16666;DHT22;8446;50.99880500;6.25021400;2024-02-21T12:06:21;10.70;99.90
16666;DHT22;8446;50.99880500;6.25021400;2024-02-21T12:08:57;10.70;99.90
16666;DHT22;8446;50.99880500;6.25021400;2024-02-21T12:11:29;10.90;99.90
16666;DHT22;8446;50.99880500;6.25021400;2024-02-21T12:14:03;10.90;99.90
16666;DHT22;8446;50.99880500;6.25021400;2024-02-21T12:16:36;11.00;99.90
16666;DHT22;8446;50.99880500;6.25021400;2024-02-21T12:19:09;11.20;99.90
16666;DHT22;8446;50.99880500;6.25021400;2024-02-21T12:21:41;11.20;99.90
16666;DHT22;8446;50.99880500;6.25021400;2024-02-21T12:24:15;11.30;99.90
16666;DHT22;8446;50.99880500;6.25021400;2024-02-21T12:26:47;11.40;99.90
16666;DHT22;8446;50.99880500;6.25021400;2024-02-21T12:29:19;11.50;99.90
16666;DHT22;8446;50.99880500;6.25021400;2024-02-21T12:31:51;11.60;99.90
16666;DHT22;8446;50.99880500;6.25021400;2024-02-21T12:34:25;11.80;99.90
16666;DHT22;8446;50.99880500;6.25021400;2024-02-21T12:36:58;11.80;99.90
16666;DHT22;8446;50.99880500;6.25021400;2024-02-21T12:39:30;11.90;99.90
16666;DHT22;8446;50.99880500;6.25021400;2024-02-21T12:42:02;11.90;99.90
16666;DHT22;8446;50.99880500;6.25021400;2024-02-21T12:44:34;12.10;99.90
16666;DHT22;8446;50.99880500;6.25021400;2024-02-21T12:47:06;12.10;99.90
16666;DHT22;8446;50.99880500;6.25021400;2024-02-21T12:49:40;12.20;99.90
16666;DHT22;8446;50.99880500;6.25021400;2024-02-21T12:52:12;12.30;99.90
16666;DHT22;8446;50.99880500;6.25021400;2024-02-21T12:54:44;12.20;99.90
16666;DHT22;8446;50.99880500;6.25021400;2024-02-21T12:57:16;12.30;99.90
16666;DHT22;8446;50.99880500;6.25021400;2024-02-21T12:59:48;12.20;99.90
16666;DHT22;8446;50.99880500;6.25021400;2024-02-21T13:02:20;12.50;99.90
16666;DHT22;8446;50.99880500;6.25021400;2024-02-21T13:04:53;12.30;99.90
16666;DHT22;8446;50.99880500;6.25021400;2024-02-21T13:07:25;12.40;99.90
16666;DHT22;8446;50.99880500;6.25021400;2024-02-21T13:10:00;12.30;99.90
16666;DHT22;8446;50.99880500;6.25021400;2024-02-21T13:12:32;12.10;99.90
16666;DHT22;8446;50.99880500;6.25021400;2024-02-21T13:15:04;12.00;99.90
16666;DHT22;8446;50.99880500;6.25021400;2024-02-21T13:17:36;12.00;99.90
16666;DHT22;8446;50.99880500;6.25021400;2024-02-21T13:20:11;11.80;99.90
16666;DHT22;8446;50.99880500;6.25021400;2024-02-21T13:22:42;11.60;99.90
16666;DHT22;8446;50.99880500;6.25021400;2024-02-21T13:25:14;11.60;99.90
16666;DHT22;8446;50.99880500;6.25021400;2024-02-21T13:27:48;11.50;99.90
16666;DHT22;8446;50.99880500;6.25021400;2024-02-21T13:30:20;11.40;99.90
16666;DHT22;8446;50.99880500;6.25021400;2024-02-21T13:32:52;11.40;99.90
16666;DHT22;8446;50.99880500;6.25021400;2024-02-21T13:35:26;11.30;99.90
16666;DHT22;8446;50.99880500;6.25021400;2024-02-21T13:37:58;11.30;99.90
16666;DHT22;8446;50.99880500;6.25021400;2024-02-21T13:40:30;11.30;99.90
16666;DHT22;8446;50.99880500;6.25021400;2024-02-21T13:43:03;11.30;99.90
16666;DHT22;8446;50.99880500;6.25021400;2024-02-21T13:45:35;11.30;99.90
16666;DHT22;8446;50.99880500;6.25021400;2024-02-21T13:48:07;11.20;99.90
16666;DHT22;8446;50.99880500;6.25021400;2024-02-21T13:50:43;11.20;99.90
16666;DHT22;8446;50.99880500;6.25021400;2024-02-21T13:53:15;11.20;99.90
16666;DHT22;8446;50.99880500;6.25021400;2024-02-21T13:55:49;11.20;99.90
16666;DHT22;8446;50.99880500;6.25021400;2024-02-21T13:58:21;11.20;99.90
16666;DHT22;8446;50.99880500;6.25021400;2024-02-21T14:00:53;11.30;99.90
16666;DHT22;8446;50.99880500;6.25021400;2024-02-21T14:03:26;11.30;99.90
16666;DHT22;8446;50.99880500;6.25021400;2024-02-21T14:06:00;11.40;99.90
16666;DHT22;8446;50.99880500;6.25021400;2024-02-21T14:08:31;11.30;99.90
16666;DHT22;8446;50.99880500;6.25021400;2024-02-21T14:11:04;11.30;99.90